You are not logged in, Click here to log in
ICAO: RJOM Country: 日本愛媛縣松山市
Latitude: 33.829 Longitude: 132.704
Total Arrivals: 17 Total Departures: 19
Latest Arrival: OC1107 (RCSS-RJOM)Jason. Li Latest Departure: NH1883 (RJOM-ROAH)Jason. Li
Scenery:
METAR : RJOM 180700Z 27005KT 9999 FEW030 SCT150 BKN/// 27/23 Q1006

松山機場MYJ